sensor_id;sensor_type;location;lat;lon;timestamp;pressure;altitude;pressure_sealevel;temperature;humidity
28448;BME280;15675;52.870;-1.416;2023-03-18T00:01:24;99788.91;;;12.12;100.00
28448;BME280;15675;52.870;-1.416;2023-03-18T00:03:49;99789.16;;;11.97;100.00
28448;BME280;15675;52.870;-1.416;2023-03-18T00:06:18;99794.72;;;11.72;100.00
28448;BME280;15675;52.870;-1.416;2023-03-18T00:08:45;99794.69;;;11.73;100.00
28448;BME280;15675;52.870;-1.416;2023-03-18T00:11:12;99805.88;;;11.80;100.00
28448;BME280;15675;52.870;-1.416;2023-03-18T00:13:38;99795.16;;;12.02;100.00
28448;BME280;15675;52.870;-1.416;2023-03-18T00:16:07;99792.69;;;11.91;100.00
28448;BME280;15675;52.870;-1.416;2023-03-18T00:18:33;99802.81;;;12.09;100.00
28448;BME280;15675;52.870;-1.416;2023-03-18T00:21:00;99804.91;;;11.86;100.00
28448;BME280;15675;52.870;-1.416;2023-03-18T00:23:27;99804.47;;;12.14;100.00
28448;BME280;15675;52.870;-1.416;2023-03-18T00:25:55;99809.69;;;12.14;100.00
28448;BME280;15675;52.870;-1.416;2023-03-18T00:28:21;99810.91;;;11.89;100.00
28448;BME280;15675;52.870;-1.416;2023-03-18T00:30:48;99812.91;;;12.26;100.00
28448;BME280;15675;52.870;-1.416;2023-03-18T00:33:14;99812.84;;;12.33;100.00
28448;BME280;15675;52.870;-1.416;2023-03-18T00:35:41;99812.50;;;12.50;100.00
28448;BME280;15675;52.870;-1.416;2023-03-18T00:38:07;99803.19;;;12.38;100.00
28448;BME280;15675;52.870;-1.416;2023-03-18T00:40:35;99808.25;;;12.46;100.00
28448;BME280;15675;52.870;-1.416;2023-03-18T00:43:27;99805.31;;;12.16;100.00
28448;BME280;15675;52.870;-1.416;2023-03-18T00:45:55;99799.88;;;12.28;100.00
28448;BME280;15675;52.870;-1.416;2023-03-18T00:48:22;99796.72;;;12.11;100.00
28448;BME280;15675;52.870;-1.416;2023-03-18T00:50:49;99801.78;;;12.18;100.00
28448;BME280;15675;52.870;-1.416;2023-03-18T00:53:15;99795.84;;;12.12;100.00
28448;BME280;15675;52.870;-1.416;2023-03-18T00:55:41;99804.81;;;11.94;100.00
28448;BME280;15675;52.870;-1.416;2023-03-18T00:58:08;99806.50;;;11.96;100.00
28448;BME280;15675;52.870;-1.416;2023-03-18T01:00:36;99805.56;;;12.02;100.00
28448;BME280;15675;52.870;-1.416;2023-03-18T01:03:02;99806.53;;;11.93;100.00
28448;BME280;15675;52.870;-1.416;2023-03-18T01:05:30;99809.72;;;12.11;100.00
28448;BME280;15675;52.870;-1.416;2023-03-18T01:07:56;99815.94;;;12.02;100.00
28448;BME280;15675;52.870;-1.416;2023-03-18T01:10:22;99810.03;;;11.90;100.00
28448;BME280;15675;52.870;-1.416;2023-03-18T01:12:48;99812.00;;;12.31;100.00
28448;BME280;15675;52.870;-1.416;2023-03-18T01:15:18;99802.66;;;12.19;100.00
28448;BME280;15675;52.870;-1.416;2023-03-18T01:17:44;99801.22;;;12.51;100.00
28448;BME280;15675;52.870;-1.416;2023-03-18T01:20:12;99808.63;;;12.71;100.00
28448;BME280;15675;52.870;-1.416;2023-03-18T01:22:38;99806.97;;;12.21;100.00
28448;BME280;15675;52.870;-1.416;2023-03-18T01:25:08;99812.06;;;12.26;100.00
28448;BME280;15675;52.870;-1.416;2023-03-18T01:27:35;99801.03;;;12.13;100.00
28448;BME280;15675;52.870;-1.416;2023-03-18T01:30:04;99802.91;;;12.05;100.00
28448;BME280;15675;52.870;-1.416;2023-03-18T01:32:31;99800.28;;;12.05;100.00
28448;BME280;15675;52.870;-1.416;2023-03-18T01:34:56;99799.56;;;11.97;100.00
28448;BME280;15675;52.870;-1.416;2023-03-18T01:37:24;99798.34;;;11.63;100.00
28448;BME280;15675;52.870;-1.416;2023-03-18T01:39:51;99796.91;;;12.00;100.00
28448;BME280;15675;52.870;-1.416;2023-03-18T01:42:17;99795.25;;;11.36;100.00
28448;BME280;15675;52.870;-1.416;2023-03-18T01:44:44;99802.78;;;11.55;100.00
28448;BME280;15675;52.870;-1.416;2023-03-18T01:47:10;99802.06;;;11.44;100.00
28448;BME280;15675;52.870;-1.416;2023-03-18T01:49:56;99808.75;;;11.62;100.00
28448;BME280;15675;52.870;-1.416;2023-03-18T01:52:26;99803.59;;;11.60;100.00
28448;BME280;15675;52.870;-1.416;2023-03-18T01:54:58;99803.78;;;12.02;100.00
28448;BME280;15675;52.870;-1.416;2023-03-18T01:57:25;99799.44;;;12.04;100.00
28448;BME280;15675;52.870;-1.416;2023-03-18T01:59:52;99795.59;;;12.27;100.00
28448;BME280;15675;52.870;-1.416;2023-03-18T02:02:20;99805.19;;;12.23;100.00
28448;BME280;15675;52.870;-1.416;2023-03-18T02:04:49;99803.47;;;12.21;100.00
28448;BME280;15675;52.870;-1.416;2023-03-18T02:07:17;99807.28;;;12.51;100.00
28448;BME280;15675;52.870;-1.416;2023-03-18T02:09:45;99787.66;;;12.78;100.00
28448;BME280;15675;52.870;-1.416;2023-03-18T02:12:14;99792.06;;;12.75;100.00
28448;BME280;15675;52.870;-1.416;2023-03-18T02:14:41;99787.16;;;12.59;100.00
28448;BME280;15675;52.870;-1.416;2023-03-18T02:17:12;99780.63;;;13.24;100.00
28448;BME280;15675;52.870;-1.416;2023-03-18T02:22:49;99775.16;;;12.96;100.00
28448;BME280;15675;52.870;-1.416;2023-03-18T02:28:11;99779.44;;;12.99;100.00
28448;BME280;15675;52.870;-1.416;2023-03-18T02:30:45;99775.97;;;12.56;100.00
28448;BME280;15675;52.870;-1.416;2023-03-18T02:33:14;99776.44;;;12.30;100.00
28448;BME280;15675;52.870;-1.416;2023-03-18T02:35:41;99776.66;;;12.19;100.00
28448;BME280;15675;52.870;-1.416;2023-03-18T02:38:09;99777.41;;;12.24;100.00
28448;BME280;15675;52.870;-1.416;2023-03-18T02:40:39;99773.13;;;12.23;100.00
28448;BME280;15675;52.870;-1.416;2023-03-18T02:43:20;99778.91;;;12.37;100.00
28448;BME280;15675;52.870;-1.416;2023-03-18T02:48:38;99770.88;;;12.48;100.00
28448;BME280;15675;52.870;-1.416;2023-03-18T02:51:08;99774.47;;;12.42;100.00
28448;BME280;15675;52.870;-1.416;2023-03-18T02:53:35;99777.59;;;12.15;100.00
28448;BME280;15675;52.870;-1.416;2023-03-18T02:56:01;99778.13;;;11.81;100.00
28448;BME280;15675;52.870;-1.416;2023-03-18T02:58:27;99778.03;;;11.85;100.00
28448;BME280;15675;52.870;-1.416;2023-03-18T03:00:53;99770.47;;;11.71;100.00
28448;BME280;15675;52.870;-1.416;2023-03-18T03:03:19;99766.06;;;11.16;100.00
28448;BME280;15675;52.870;-1.416;2023-03-18T03:05:45;99774.72;;;11.18;100.00
28448;BME280;15675;52.870;-1.416;2023-03-18T03:08:11;99780.75;;;11.20;100.00
28448;BME280;15675;52.870;-1.416;2023-03-18T03:10:36;99778.34;;;11.08;100.00
28448;BME280;15675;52.870;-1.416;2023-03-18T03:13:03;99776.75;;;10.94;100.00
28448;BME280;15675;52.870;-1.416;2023-03-18T03:15:28;99769.94;;;10.85;100.00
28448;BME280;15675;52.870;-1.416;2023-03-18T03:17:54;99781.03;;;10.98;100.00
28448;BME280;15675;52.870;-1.416;2023-03-18T03:20:20;99778.31;;;11.09;100.00
28448;BME280;15675;52.870;-1.416;2023-03-18T03:22:46;99783.03;;;10.78;100.00
28448;BME280;15675;52.870;-1.416;2023-03-18T03:25:12;99787.22;;;10.88;100.00
28448;BME280;15675;52.870;-1.416;2023-03-18T03:27:38;99775.75;;;11.06;100.00
28448;BME280;15675;52.870;-1.416;2023-03-18T03:30:07;99778.25;;;11.14;100.00
28448;BME280;15675;52.870;-1.416;2023-03-18T03:32:34;99777.19;;;11.29;100.00
28448;BME280;15675;52.870;-1.416;2023-03-18T03:35:00;99780.72;;;11.21;100.00
28448;BME280;15675;52.870;-1.416;2023-03-18T03:37:26;99790.34;;;11.16;100.00
28448;BME280;15675;52.870;-1.416;2023-03-18T03:39:52;99779.22;;;11.05;100.00
28448;BME280;15675;52.870;-1.416;2023-03-18T03:42:18;99787.78;;;11.13;100.00
28448;BME280;15675;52.870;-1.416;2023-03-18T03:44:44;99778.47;;;10.97;100.00
28448;BME280;15675;52.870;-1.416;2023-03-18T03:47:11;99784.75;;;10.76;100.00
28448;BME280;15675;52.870;-1.416;2023-03-18T03:49:36;99775.25;;;10.76;100.00
28448;BME280;15675;52.870;-1.416;2023-03-18T03:52:03;99793.25;;;10.90;100.00
28448;BME280;15675;52.870;-1.416;2023-03-18T03:54:29;99789.47;;;11.17;100.00
28448;BME280;15675;52.870;-1.416;2023-03-18T03:56:54;99784.91;;;11.33;100.00
28448;BME280;15675;52.870;-1.416;2023-03-18T03:59:20;99791.78;;;11.37;100.00
28448;BME280;15675;52.870;-1.416;2023-03-18T04:01:45;99794.13;;;11.54;100.00
28448;BME280;15675;52.870;-1.416;2023-03-18T04:04:11;99787.25;;;11.50;100.00
28448;BME280;15675;52.870;-1.416;2023-03-18T04:06:37;99788.16;;;11.48;100.00
28448;BME280;15675;52.870;-1.416;2023-03-18T04:09:03;99795.53;;;11.15;100.00
28448;BME280;15675;52.870;-1.416;2023-03-18T04:11:29;99800.16;;;10.93;100.00
28448;BME280;15675;52.870;-1.416;2023-03-18T04:13:55;99798.00;;;11.24;100.00
28448;BME280;15675;52.870;-1.416;2023-03-18T04:16:21;99791.34;;;11.65;100.00
28448;BME280;15675;52.870;-1.416;2023-03-18T04:18:46;99792.94;;;11.74;100.00
28448;BME280;15675;52.870;-1.416;2023-03-18T04:21:12;99788.91;;;11.56;100.00
28448;BME280;15675;52.870;-1.416;2023-03-18T04:23:37;99774.91;;;11.02;100.00
28448;BME280;15675;52.870;-1.416;2023-03-18T04:26:03;99780.94;;;11.08;100.00
28448;BME280;15675;52.870;-1.416;2023-03-18T04:28:30;99779.31;;;10.96;100.00
28448;BME280;15675;52.870;-1.416;2023-03-18T04:30:56;99790.22;;;10.54;100.00
28448;BME280;15675;52.870;-1.416;2023-03-18T04:33:21;99801.50;;;10.50;100.00
28448;BME280;15675;52.870;-1.416;2023-03-18T04:35:48;99795.13;;;10.80;100.00
28448;BME280;15675;52.870;-1.416;2023-03-18T04:38:13;99798.69;;;10.68;100.00
28448;BME280;15675;52.870;-1.416;2023-03-18T04:40:39;99800.50;;;10.63;100.00
28448;BME280;15675;52.870;-1.416;2023-03-18T04:43:05;99795.94;;;10.82;100.00
28448;BME280;15675;52.870;-1.416;2023-03-18T04:45:30;99803.84;;;10.73;100.00
28448;BME280;15675;52.870;-1.416;2023-03-18T04:47:56;99806.47;;;10.70;100.00
28448;BME280;15675;52.870;-1.416;2023-03-18T04:50:22;99817.53;;;10.84;100.00
28448;BME280;15675;52.870;-1.416;2023-03-18T04:52:48;99815.88;;;11.49;100.00
28448;BME280;15675;52.870;-1.416;2023-03-18T04:55:14;99819.97;;;11.64;100.00
28448;BME280;15675;52.870;-1.416;2023-03-18T04:57:42;99828.41;;;11.17;100.00
28448;BME280;15675;52.870;-1.416;2023-03-18T05:00:17;99818.97;;;11.09;100.00
28448;BME280;15675;52.870;-1.416;2023-03-18T05:02:45;99821.63;;;11.05;100.00
28448;BME280;15675;52.870;-1.416;2023-03-18T05:05:11;99824.22;;;11.05;100.00
28448;BME280;15675;52.870;-1.416;2023-03-18T05:07:36;99825.47;;;11.42;100.00
28448;BME280;15675;52.870;-1.416;2023-03-18T05:10:05;99827.78;;;11.62;100.00
28448;BME280;15675;52.870;-1.416;2023-03-18T05:12:32;99835.47;;;11.71;100.00
28448;BME280;15675;52.870;-1.416;2023-03-18T05:14:57;99831.91;;;11.79;100.00
28448;BME280;15675;52.870;-1.416;2023-03-18T05:17:23;99832.94;;;11.65;100.00
28448;BME280;15675;52.870;-1.416;2023-03-18T05:19:49;99834.03;;;12.09;100.00
28448;BME280;15675;52.870;-1.416;2023-03-18T05:22:16;99830.06;;;11.84;100.00
28448;BME280;15675;52.870;-1.416;2023-03-18T05:24:43;99834.47;;;11.80;100.00
28448;BME280;15675;52.870;-1.416;2023-03-18T05:27:10;99834.13;;;12.03;100.00
28448;BME280;15675;52.870;-1.416;2023-03-18T05:29:36;99836.63;;;12.09;100.00
28448;BME280;15675;52.870;-1.416;2023-03-18T05:32:05;99840.44;;;11.85;100.00
28448;BME280;15675;52.870;-1.416;2023-03-18T05:34:35;99831.91;;;11.79;100.00
28448;BME280;15675;52.870;-1.416;2023-03-18T05:37:03;99837.59;;;12.04;100.00
28448;BME280;15675;52.870;-1.416;2023-03-18T05:39:29;99845.91;;;12.26;100.00
28448;BME280;15675;52.870;-1.416;2023-03-18T05:41:56;99837.13;;;12.80;100.00
28448;BME280;15675;52.870;-1.416;2023-03-18T05:44:22;99841.59;;;13.17;100.00
28448;BME280;15675;52.870;-1.416;2023-03-18T05:46:47;99840.06;;;13.07;100.00
28448;BME280;15675;52.870;-1.416;2023-03-18T05:49:15;99844.75;;;13.32;100.00
28448;BME280;15675;52.870;-1.416;2023-03-18T05:51:41;99840.88;;;12.64;100.00
28448;BME280;15675;52.870;-1.416;2023-03-18T05:54:06;99838.94;;;12.26;100.00
28448;BME280;15675;52.870;-1.416;2023-03-18T05:56:33;99837.44;;;12.13;100.00
28448;BME280;15675;52.870;-1.416;2023-03-18T05:58:59;99842.09;;;11.91;100.00
28448;BME280;15675;52.870;-1.416;2023-03-18T06:01:25;99841.75;;;12.13;100.00
28448;BME280;15675;52.870;-1.416;2023-03-18T06:03:50;99839.16;;;12.13;100.00
28448;BME280;15675;52.870;-1.416;2023-03-18T06:06:17;99847.94;;;12.05;100.00
28448;BME280;15675;52.870;-1.416;2023-03-18T06:08:43;99844.75;;;12.41;100.00
28448;BME280;15675;52.870;-1.416;2023-03-18T06:11:09;99846.28;;;12.54;100.00
28448;BME280;15675;52.870;-1.416;2023-03-18T06:13:35;99847.31;;;12.46;100.00
28448;BME280;15675;52.870;-1.416;2023-03-18T06:16:01;99854.59;;;12.73;100.00
28448;BME280;15675;52.870;-1.416;2023-03-18T06:18:28;99860.31;;;12.91;100.00
28448;BME280;15675;52.870;-1.416;2023-03-18T06:20:54;99861.16;;;12.93;100.00
28448;BME280;15675;52.870;-1.416;2023-03-18T06:23:20;99860.25;;;12.95;100.00
28448;BME280;15675;52.870;-1.416;2023-03-18T06:25:46;99859.34;;;11.98;100.00
28448;BME280;15675;52.870;-1.416;2023-03-18T06:28:14;99858.09;;;12.22;100.00
28448;BME280;15675;52.870;-1.416;2023-03-18T06:30:40;99857.81;;;12.39;100.00
28448;BME280;15675;52.870;-1.416;2023-03-18T06:33:06;99860.41;;;12.39;100.00
28448;BME280;15675;52.870;-1.416;2023-03-18T06:35:32;99864.28;;;12.65;100.00
28448;BME280;15675;52.870;-1.416;2023-03-18T06:37:58;99872.28;;;12.56;100.00
28448;BME280;15675;52.870;-1.416;2023-03-18T06:40:24;99871.69;;;12.88;100.00
28448;BME280;15675;52.870;-1.416;2023-03-18T06:42:50;99869.56;;;13.07;100.00
28448;BME280;15675;52.870;-1.416;2023-03-18T06:45:16;99872.09;;;13.10;100.00
28448;BME280;15675;52.870;-1.416;2023-03-18T06:47:43;99872.94;;;12.67;100.00
28448;BME280;15675;52.870;-1.416;2023-03-18T06:50:09;99873.47;;;12.85;100.00
28448;BME280;15675;52.870;-1.416;2023-03-18T06:52:35;99872.91;;;13.14;100.00
28448;BME280;15675;52.870;-1.416;2023-03-18T06:55:02;99864.63;;;13.39;100.00
28448;BME280;15675;52.870;-1.416;2023-03-18T06:57:29;99877.56;;;13.42;100.00
28448;BME280;15675;52.870;-1.416;2023-03-18T06:59:54;99874.94;;;13.43;100.00
28448;BME280;15675;52.870;-1.416;2023-03-18T07:02:20;99882.72;;;13.45;100.00
28448;BME280;15675;52.870;-1.416;2023-03-18T07:04:48;99880.00;;;13.51;100.00
28448;BME280;15675;52.870;-1.416;2023-03-18T07:07:14;99881.44;;;13.64;100.00
28448;BME280;15675;52.870;-1.416;2023-03-18T07:09:39;99884.78;;;13.71;100.00
28448;BME280;15675;52.870;-1.416;2023-03-18T07:12:05;99889.84;;;13.77;100.00
28448;BME280;15675;52.870;-1.416;2023-03-18T07:14:31;99888.00;;;13.83;100.00
28448;BME280;15675;52.870;-1.416;2023-03-18T07:16:57;99883.47;;;13.89;100.00
28448;BME280;15675;52.870;-1.416;2023-03-18T07:19:22;99885.88;;;13.98;100.00
28448;BME280;15675;52.870;-1.416;2023-03-18T07:21:48;99889.50;;;13.93;100.00
28448;BME280;15675;52.870;-1.416;2023-03-18T07:24:14;99887.84;;;13.89;100.00
28448;BME280;15675;52.870;-1.416;2023-03-18T07:26:40;99881.50;;;13.99;100.00
28448;BME280;15675;52.870;-1.416;2023-03-18T07:29:06;99880.59;;;14.02;100.00
28448;BME280;15675;52.870;-1.416;2023-03-18T07:31:31;99878.34;;;13.86;100.00
28448;BME280;15675;52.870;-1.416;2023-03-18T07:33:57;99882.06;;;13.76;100.00
28448;BME280;15675;52.870;-1.416;2023-03-18T07:36:23;99885.13;;;13.93;100.00
28448;BME280;15675;52.870;-1.416;2023-03-18T07:38:49;99892.56;;;14.10;100.00
28448;BME280;15675;52.870;-1.416;2023-03-18T07:41:15;99895.91;;;14.15;100.00
28448;BME280;15675;52.870;-1.416;2023-03-18T07:43:41;99901.91;;;14.19;100.00
28448;BME280;15675;52.870;-1.416;2023-03-18T07:46:07;99891.63;;;13.75;100.00
28448;BME280;15675;52.870;-1.416;2023-03-18T07:48:33;99897.31;;;13.93;100.00
28448;BME280;15675;52.870;-1.416;2023-03-18T07:50:59;99892.44;;;14.15;100.00
28448;BME280;15675;52.870;-1.416;2023-03-18T07:53:26;99900.06;;;14.24;100.00
28448;BME280;15675;52.870;-1.416;2023-03-18T07:55:52;99904.34;;;14.27;100.00
28448;BME280;15675;52.870;-1.416;2023-03-18T07:58:18;99909.66;;;14.24;100.00
28448;BME280;15675;52.870;-1.416;2023-03-18T08:00:44;99907.97;;;13.82;100.00
28448;BME280;15675;52.870;-1.416;2023-03-18T08:03:10;99906.63;;;13.66;100.00
28448;BME280;15675;52.870;-1.416;2023-03-18T08:05:36;99913.28;;;13.79;100.00
28448;BME280;15675;52.870;-1.416;2023-03-18T08:08:03;99919.84;;;13.97;100.00
28448;BME280;15675;52.870;-1.416;2023-03-18T08:10:29;99923.31;;;14.35;100.00
28448;BME280;15675;52.870;-1.416;2023-03-18T08:12:56;99910.81;;;14.46;100.00
28448;BME280;15675;52.870;-1.416;2023-03-18T08:15:22;99924.34;;;14.64;100.00
28448;BME280;15675;52.870;-1.416;2023-03-18T08:17:49;99923.69;;;14.54;100.00
28448;BME280;15675;52.870;-1.416;2023-03-18T08:20:14;99921.25;;;14.46;100.00
28448;BME280;15675;52.870;-1.416;2023-03-18T08:22:40;99927.81;;;14.28;100.00
28448;BME280;15675;52.870;-1.416;2023-03-18T08:25:06;99931.16;;;13.96;100.00
28448;BME280;15675;52.870;-1.416;2023-03-18T08:27:32;99927.88;;;14.25;100.00
28448;BME280;15675;52.870;-1.416;2023-03-18T08:29:57;99928.09;;;13.36;100.00
28448;BME280;15675;52.870;-1.416;2023-03-18T08:32:23;99930.75;;;12.86;100.00
28448;BME280;15675;52.870;-1.416;2023-03-18T08:34:49;99930.66;;;12.91;100.00
28448;BME280;15675;52.870;-1.416;2023-03-18T08:37:15;99935.47;;;13.11;100.00
28448;BME280;15675;52.870;-1.416;2023-03-18T08:39:41;99937.63;;;12.90;100.00
28448;BME280;15675;52.870;-1.416;2023-03-18T08:42:08;99940.84;;;13.03;100.00
28448;BME280;15675;52.870;-1.416;2023-03-18T08:44:34;99942.38;;;13.13;100.00
28448;BME280;15675;52.870;-1.416;2023-03-18T08:47:00;99942.94;;;13.29;100.00
28448;BME280;15675;52.870;-1.416;2023-03-18T08:49:26;99944.31;;;13.49;100.00
28448;BME280;15675;52.870;-1.416;2023-03-18T08:51:52;99937.06;;;13.63;100.00
28448;BME280;15675;52.870;-1.416;2023-03-18T08:54:19;99943.59;;;13.42;100.00
28448;BME280;15675;52.870;-1.416;2023-03-18T08:56:45;99946.28;;;13.38;100.00
28448;BME280;15675;52.870;-1.416;2023-03-18T08:59:11;99946.22;;;13.41;100.00
28448;BME280;15675;52.870;-1.416;2023-03-18T09:01:37;99948.19;;;13.28;100.00
28448;BME280;15675;52.870;-1.416;2023-03-18T09:04:04;99942.31;;;13.17;100.00
28448;BME280;15675;52.870;-1.416;2023-03-18T09:06:29;99947.06;;;13.43;100.00
28448;BME280;15675;52.870;-1.416;2023-03-18T09:08:55;99947.22;;;13.35;100.00
28448;BME280;15675;52.870;-1.416;2023-03-18T09:11:22;99948.97;;;13.77;100.00
28448;BME280;15675;52.870;-1.416;2023-03-18T09:13:48;99951.84;;;13.64;100.00
28448;BME280;15675;52.870;-1.416;2023-03-18T09:16:13;99952.72;;;14.04;100.00
28448;BME280;15675;52.870;-1.416;2023-03-18T09:18:39;99949.41;;;13.96;100.00
28448;BME280;15675;52.870;-1.416;2023-03-18T09:21:05;99951.69;;;13.71;100.00
28448;BME280;15675;52.870;-1.416;2023-03-18T09:23:31;99950.72;;;13.76;100.00
28448;BME280;15675;52.870;-1.416;2023-03-18T09:25:57;99954.59;;;13.58;100.00
28448;BME280;15675;52.870;-1.416;2023-03-18T09:28:24;99952.69;;;13.65;100.00
28448;BME280;15675;52.870;-1.416;2023-03-18T09:30:50;99959.69;;;13.18;100.00
28448;BME280;15675;52.870;-1.416;2023-03-18T09:33:16;99951.59;;;13.32;100.00
28448;BME280;15675;52.870;-1.416;2023-03-18T09:35:41;99948.31;;;13.22;100.00
28448;BME280;15675;52.870;-1.416;2023-03-18T09:38:12;99952.66;;;13.23;100.00
28448;BME280;15675;52.870;-1.416;2023-03-18T09:44:02;99955.13;;;13.29;100.00
28448;BME280;15675;52.870;-1.416;2023-03-18T09:49:16;99956.66;;;13.41;100.00
28448;BME280;15675;52.870;-1.416;2023-03-18T09:54:36;99955.06;;;14.15;100.00
28448;BME280;15675;52.870;-1.416;2023-03-18T09:57:13;99955.91;;;14.17;100.00
28448;BME280;15675;52.870;-1.416;2023-03-18T09:59:46;99954.41;;;14.07;100.00
28448;BME280;15675;52.870;-1.416;2023-03-18T10:02:36;99954.91;;;13.41;100.00
28448;BME280;15675;52.870;-1.416;2023-03-18T10:05:28;99957.13;;;13.61;100.00
28448;BME280;15675;52.870;-1.416;2023-03-18T10:08:01;99969.91;;;13.72;100.00
28448;BME280;15675;52.870;-1.416;2023-03-18T10:10:35;99969.06;;;13.26;100.00
28448;BME280;15675;52.870;-1.416;2023-03-18T10:13:08;99963.47;;;13.48;100.00
28448;BME280;15675;52.870;-1.416;2023-03-18T10:15:43;99972.31;;;13.39;100.00
28448;BME280;15675;52.870;-1.416;2023-03-18T10:18:19;99969.78;;;13.80;100.00
28448;BME280;15675;52.870;-1.416;2023-03-18T10:20:50;99967.59;;;13.99;100.00
28448;BME280;15675;52.870;-1.416;2023-03-18T10:26:18;99966.19;;;14.23;100.00
28448;BME280;15675;52.870;-1.416;2023-03-18T10:28:53;99957.59;;;14.56;100.00
28448;BME280;15675;52.870;-1.416;2023-03-18T10:34:00;99960.03;;;13.88;100.00
28448;BME280;15675;52.870;-1.416;2023-03-18T10:39:22;99966.75;;;14.36;100.00
28448;BME280;15675;52.870;-1.416;2023-03-18T10:41:53;99961.81;;;14.61;100.00
28448;BME280;15675;52.870;-1.416;2023-03-18T10:44:23;99961.19;;;14.86;100.00
28448;BME280;15675;52.870;-1.416;2023-03-18T10:49:42;99961.09;;;14.55;100.00
28448;BME280;15675;52.870;-1.416;2023-03-18T10:52:22;99960.50;;;14.43;100.00
28448;BME280;15675;52.870;-1.416;2023-03-18T10:54:51;99956.97;;;14.46;100.00
28448;BME280;15675;52.870;-1.416;2023-03-18T10:57:18;99961.41;;;14.05;100.00
28448;BME280;15675;52.870;-1.416;2023-03-18T10:59:44;99957.88;;;14.43;100.00
28448;BME280;15675;52.870;-1.416;2023-03-18T11:02:17;99960.91;;;14.64;100.00
28448;BME280;15675;52.870;-1.416;2023-03-18T11:08:03;99955.88;;;14.55;100.00
28448;BME280;15675;52.870;-1.416;2023-03-18T11:10:45;99967.88;;;14.26;100.00
28448;BME280;15675;52.870;-1.416;2023-03-18T11:13:18;99966.16;;;13.86;100.00
28448;BME280;15675;52.870;-1.416;2023-03-18T11:15:48;99971.78;;;13.67;100.00
28448;BME280;15675;52.870;-1.416;2023-03-18T11:18:18;99972.44;;;13.77;100.00
28448;BME280;15675;52.870;-1.416;2023-03-18T11:20:48;99973.91;;;13.46;100.00
28448;BME280;15675;52.870;-1.416;2023-03-18T11:23:34;99969.38;;;13.09;100.00
28448;BME280;15675;52.870;-1.416;2023-03-18T11:26:25;99976.25;;;13.13;100.00
28448;BME280;15675;52.870;-1.416;2023-03-18T11:28:55;99971.84;;;13.19;100.00
28448;BME280;15675;52.870;-1.416;2023-03-18T11:31:21;99980.94;;;12.94;100.00
28448;BME280;15675;52.870;-1.416;2023-03-18T11:33:47;99984.81;;;13.20;100.00
28448;BME280;15675;52.870;-1.416;2023-03-18T11:36:16;99982.75;;;12.91;100.00
28448;BME280;15675;52.870;-1.416;2023-03-18T11:38:43;99991.06;;;13.11;100.00
28448;BME280;15675;52.870;-1.416;2023-03-18T11:41:17;99982.03;;;13.29;100.00
28448;BME280;15675;52.870;-1.416;2023-03-18T11:46:38;99974.41;;;13.20;100.00
28448;BME280;15675;52.870;-1.416;2023-03-18T11:49:05;99989.25;;;13.15;100.00
28448;BME280;15675;52.870;-1.416;2023-03-18T12:00:20;99982.84;;;13.78;100.00
28448;BME280;15675;52.870;-1.416;2023-03-18T12:05:34;99979.53;;;14.09;100.00
28448;BME280;15675;52.870;-1.416;2023-03-18T12:10:41;99979.56;;;13.69;100.00
28448;BME280;15675;52.870;-1.416;2023-03-18T12:18:47;99972.13;;;13.91;100.00
28448;BME280;15675;52.870;-1.416;2023-03-18T12:21:36;99973.38;;;13.74;100.00
28448;BME280;15675;52.870;-1.416;2023-03-18T12:27:22;99978.25;;;14.29;100.00
28448;BME280;15675;52.870;-1.416;2023-03-18T12:30:18;99977.34;;;14.67;100.00
28448;BME280;15675;52.870;-1.416;2023-03-18T12:38:50;99964.88;;;15.43;100.00
28448;BME280;15675;52.870;-1.416;2023-03-18T12:41:44;99953.03;;;15.31;100.00
28448;BME280;15675;52.870;-1.416;2023-03-18T12:47:06;99957.78;;;15.17;100.00
28448;BME280;15675;52.870;-1.416;2023-03-18T12:49:50;99961.16;;;15.22;100.00
28448;BME280;15675;52.870;-1.416;2023-03-18T12:52:27;99949.28;;;15.40;100.00
28448;BME280;15675;52.870;-1.416;2023-03-18T12:57:37;99957.81;;;15.15;100.00
28448;BME280;15675;52.870;-1.416;2023-03-18T13:00:17;99961.34;;;15.46;100.00
28448;BME280;15675;52.870;-1.416;2023-03-18T13:05:31;99952.28;;;15.26;100.00
28448;BME280;15675;52.870;-1.416;2023-03-18T13:08:27;99949.56;;;15.31;100.00
28448;BME280;15675;52.870;-1.416;2023-03-18T13:11:09;99942.53;;;15.63;100.00
28448;BME280;15675;52.870;-1.416;2023-03-18T13:13:38;99941.97;;;15.83;100.00
28448;BME280;15675;52.870;-1.416;2023-03-18T13:16:08;99939.63;;;15.44;100.00
28448;BME280;15675;52.870;-1.416;2023-03-18T13:18:43;99944.19;;;15.67;100.00
28448;BME280;15675;52.870;-1.416;2023-03-18T13:21:14;99943.59;;;15.57;100.00
28448;BME280;15675;52.870;-1.416;2023-03-18T13:32:24;99940.13;;;15.57;100.00
28448;BME280;15675;52.870;-1.416;2023-03-18T13:35:08;99932.03;;;15.64;100.00
28448;BME280;15675;52.870;-1.416;2023-03-18T13:40:52;99924.59;;;15.80;100.00
28448;BME280;15675;52.870;-1.416;2023-03-18T13:43:23;99921.25;;;15.75;100.00
28448;BME280;15675;52.870;-1.416;2023-03-18T13:45:52;99919.97;;;15.90;100.00
28448;BME280;15675;52.870;-1.416;2023-03-18T13:48:32;99924.69;;;15.77;100.00
28448;BME280;15675;52.870;-1.416;2023-03-18T13:51:58;99932.53;;;15.16;100.00
28448;BME280;15675;52.870;-1.416;2023-03-18T13:54:01;99934.91;;;14.94;100.00
28448;BME280;15675;52.870;-1.416;2023-03-18T13:56:46;99943.34;;;15.02;100.00
28448;BME280;15675;52.870;-1.416;2023-03-18T14:04:50;99941.31;;;14.08;100.00
28448;BME280;15675;52.870;-1.416;2023-03-18T14:07:22;99943.88;;;14.47;100.00
28448;BME280;15675;52.870;-1.416;2023-03-18T14:17:57;99943.78;;;14.50;100.00
28448;BME280;15675;52.870;-1.416;2023-03-18T14:20:25;99934.59;;;14.36;100.00
28448;BME280;15675;52.870;-1.416;2023-03-18T14:23:31;99927.00;;;14.25;100.00
28448;BME280;15675;52.870;-1.416;2023-03-18T14:26:02;99942.66;;;14.25;100.00